Time;durP1;ratioP1;P1;durP2;ratioP2;P2;SDS_P1;SDS_P2;PMS_P1;PMS_P2;Temp;Humidity;BMP_temperature;BMP_pressure;BME280_temperature;BME280_humidity;BME280_pressure;Samples;Min_cycle;Max_cycle;Signal;HPM_P1;HPM_P2
2022/07/21 00:01:36;;;;;;;9.38;5.07;;;;;;;;;;5174819;28;20156;-71
2022/07/21 00:04:09;;;;;;;8.98;5.07;;;;;;;;;;5176797;28;20053;-71
2022/07/21 00:06:43;;;;;;;9.02;5.43;;;;;;;;;;5179951;28;20048;-71
2022/07/21 00:09:16;;;;;;;11.38;5.90;;;;;;;;;;5180018;28;20052;-71
2022/07/21 00:11:48;;;;;;;8.70;5.05;;;;;;;;;;5171513;28;20057;-72
2022/07/21 00:14:21;;;;;;;11.30;5.40;;;;;;;;;;5170146;28;20049;-71
2022/07/21 00:16:54;;;;;;;11.10;5.30;;;;;;;;;;5175262;28;20046;-71
2022/07/21 00:19:27;;;;;;;10.48;6.15;;;;;;;;;;5172266;28;20053;-71
2022/07/21 00:22:00;;;;;;;9.40;5.32;;;;;;;;;;5173023;28;20059;-72
2022/07/21 00:24:33;;;;;;;14.75;4.90;;;;;;;;;;5175524;28;20478;-71
2022/07/21 00:27:06;;;;;;;9.95;5.18;;;;;;;;;;5181777;28;20060;-71
2022/07/21 00:29:38;;;;;;;9.77;6.00;;;;;;;;;;5172733;28;20046;-72
2022/07/21 00:32:11;;;;;;;11.55;5.63;;;23.20;80.50;;;;;;5160050;28;20088;-72
2022/07/21 00:34:46;;;;;;;10.48;5.47;;;23.40;80.20;;;;;;5184455;28;20682;-72
2022/07/21 00:37:19;;;;;;;10.70;5.30;;;23.30;80.90;;;;;;5166689;28;20054;-72
2022/07/21 00:39:51;;;;;;;8.15;5.78;;;23.30;82.00;;;;;;5171770;28;20045;-72
2022/07/21 00:42:27;;;;;;;6.70;5.43;;;23.40;83.20;;;;;;5164153;28;20668;-71
2022/07/21 00:45:03;;;;;;;9.15;5.70;;;23.30;83.20;;;;;;5172368;28;20050;-71
2022/07/21 00:47:36;;;;;;;8.43;6.25;;;23.00;84.80;;;;;;5171560;28;20056;-71
2022/07/21 00:50:12;;;;;;;6.00;5.20;;;23.00;85.60;;;;;;5172513;28;20061;-71
2022/07/21 00:52:46;;;;;;;9.90;5.22;;;;;;;;;;5173344;28;20064;-71
2022/07/21 00:55:20;;;;;;;9.80;5.32;;;;;;;;;;5170644;28;20084;-70
2022/07/21 00:57:53;;;;;;;9.07;5.38;;;;;;;;;;5172937;28;20062;-71
2022/07/21 01:00:27;;;;;;;11.43;6.25;;;;;;;;;;5171761;28;20065;-71
2022/07/21 01:03:00;;;;;;;10.23;5.95;;;;;;;;;;5172518;28;20054;-70
2022/07/21 01:05:33;;;;;;;12.65;5.97;;;;;;;;;;5173210;28;20977;-71
2022/07/21 01:08:06;;;;;;;13.07;5.82;;;;;;;;;;5170713;28;20049;-71
2022/07/21 01:10:40;;;;;;;6.05;5.45;;;;;;;;;;5177699;28;21131;-71
2022/07/21 01:13:13;;;;;;;8.68;5.80;;;;;;;;;;5168597;28;20053;-71
2022/07/21 01:15:46;;;;;;;8.85;6.60;;;;;;;;;;5173208;28;20045;-71
2022/07/21 01:18:19;;;;;;;8.50;5.97;;;;;;;;;;5170723;28;20057;-72
2022/07/21 01:20:52;;;;;;;10.50;5.43;;;;;;;;;;5168201;28;20049;-72
2022/07/21 01:23:25;;;;;;;9.60;6.45;;;;;;;;;;5180254;28;20300;-70
2022/07/21 01:25:58;;;;;;;7.40;6.07;;;22.90;88.90;;;;;;5170115;28;20482;-71
2022/07/21 01:28:30;;;;;;;11.93;6.47;;;22.90;88.90;;;;;;5177660;28;20049;-71
2022/07/21 01:31:03;;;;;;;12.55;5.78;;;22.90;89.80;;;;;;5190228;28;20941;-71
2022/07/21 01:33:35;;;;;;;9.52;6.72;;;22.90;90.10;;;;;;5176206;28;20620;-71
2022/07/21 01:36:08;;;;;;;7.05;6.13;;;22.80;90.60;;;;;;5177150;28;20053;-72
2022/07/21 01:41:33;;;;;;;10.00;6.10;;;22.50;91.50;;;;;;5171972;28;20460;-70
2022/07/21 01:44:07;;;;;;;10.35;6.68;;;;;;;;;;5175902;28;20500;-71
2022/07/21 01:46:42;;;;;;;7.30;6.53;;;;;;;;;;5177027;28;20147;-71
2022/07/21 01:49:15;;;;;;;9.27;6.43;;;;;;;;;;5176574;28;20615;-71
2022/07/21 01:51:50;;;;;;;9.18;6.60;;;;;;;;;;5183510;28;21388;-71
2022/07/21 01:54:23;;;;;;;;;;;;;;;;;;5175728;28;20045;-71
2022/07/21 01:56:56;;;;;;;8.20;7.20;;;;;;;;;;5171985;28;19929;-71
2022/07/21 01:59:29;;;;;;;13.88;6.82;;;;;;;;;;5175264;28;20046;-71
2022/07/21 02:02:02;;;;;;;11.20;6.57;;;;;;;;;;5172754;28;20046;-71
2022/07/21 02:04:35;;;;;;;9.07;5.85;;;;;;;;;;5174562;28;20529;-71
2022/07/21 02:07:08;;;;;;;13.48;6.40;;;;;;;;;;5175774;28;20462;-71
2022/07/21 02:09:40;;;;;;;8.98;6.70;;;;;;;;;;5173059;28;20054;-71
2022/07/21 02:12:13;;;;;;;15.63;7.57;;;;;;;;;;5175157;28;20041;-70
2022/07/21 02:14:46;;;;;;;11.52;7.55;;;;;;;;;;5177088;28;20450;-70
2022/07/21 02:17:19;;;;;;;10.20;7.10;;;;;;;;;;5173260;28;20088;-70
2022/07/21 02:19:52;;;;;;;8.68;6.63;;;;;;;;;;5174017;28;20045;-71
2022/07/21 02:22:25;;;;;;;10.68;7.28;;;;;;;;;;5173497;28;20054;-70
2022/07/21 02:24:58;;;;;;;11.10;6.37;;;;;;;;;;5175085;28;20494;-70
2022/07/21 02:27:31;;;;;;;7.80;6.40;;;;;;;;;;5172619;28;20054;-69
2022/07/21 02:30:04;;;;;;;10.90;7.15;;;;;;;;;;5169499;28;20656;-70
2022/07/21 02:32:37;;;;;;;10.05;7.30;;;;;;;;;;5175385;28;20336;-70
2022/07/21 02:35:10;;;;;;;12.45;6.72;;;;;;;;;;5175203;28;20056;-71
2022/07/21 02:37:43;;;;;;;7.63;6.40;;;;;;;;;;5172440;28;20045;-71
2022/07/21 02:40:16;;;;;;;12.90;7.15;;;;;;;;;;5167982;28;20049;-71
2022/07/21 02:42:48;;;;;;;11.50;7.97;;;21.90;99.20;;;;;;5164983;28;20438;-71
2022/07/21 02:45:21;;;;;;;9.52;6.75;;;22.00;98.90;;;;;;5169698;28;20042;-71
2022/07/21 02:48:03;;;;;;;9.75;7.00;;;21.90;99.40;;;;;;5157588;28;20041;-72
2022/07/21 02:50:37;;;;;;;12.20;7.32;;;21.90;99.90;;;;;;5168812;28;20049;-71
2022/07/21 02:53:19;;;;;;;9.98;7.10;;;21.90;99.90;;;;;;5166561;28;20053;-70
2022/07/21 02:55:52;;;;;;;11.52;7.40;;;21.90;99.90;;;;;;5146026;28;20053;-71
2022/07/21 02:58:25;;;;;;;;;;;;;;;;;;5159344;28;20060;-70
2022/07/21 03:00:59;;;;;;;10.45;7.28;;;;;;;;;;5178420;28;20297;-71
2022/07/21 03:03:35;;;;;;;11.35;8.70;;;;;;;;;;5172497;28;20060;-71
2022/07/21 03:06:08;;;;;;;13.45;9.15;;;;;;;;;;5170629;28;20049;-71
2022/07/21 03:08:41;;;;;;;12.52;9.68;;;;;;;;;;5169121;28;20046;-71
2022/07/21 03:11:13;;;;;;;13.03;9.27;;;21.90;99.90;;;;;;5164536;28;20057;-72
2022/07/21 03:13:46;;;;;;;13.23;9.20;;;22.00;99.90;;;;;;5186299;28;20288;-70
2022/07/21 03:16:18;;;;;;;15.07;9.65;;;21.90;99.90;;;;;;5174412;28;20054;-71
2022/07/21 03:18:51;;;;;;;17.30;10.52;;;21.80;99.90;;;;;;5176192;28;20532;-71
2022/07/21 03:21:24;;;;;;;11.50;9.80;;;21.80;99.90;;;;;;5174998;28;20049;-72
2022/07/21 03:23:57;;;;;;;16.48;10.15;;;21.70;99.90;;;;;;5176908;28;20042;-72
2022/07/21 03:26:31;;;;;;;11.65;10.13;;;22.20;99.90;;;;;;5171555;28;20046;-71
2022/07/21 03:29:04;;;;;;;13.20;10.30;;;21.50;99.90;;;;;;5160415;28;20056;-71
2022/07/21 03:31:36;;;;;;;13.60;10.30;;;;;;;;;;5178278;28;20057;-71
2022/07/21 03:34:09;;;;;;;17.93;11.20;;;;;;;;;;5177599;28;20596;-71
2022/07/21 03:36:43;;;;;;;16.33;10.95;;;;;;;;;;5174005;28;20300;-72
2022/07/21 03:39:15;;;;;;;17.47;10.00;;;;;;;;;;5179217;28;20076;-72
2022/07/21 03:41:48;;;;;;;12.50;11.10;;;;;;;;;;5170680;28;20057;-71
2022/07/21 03:44:21;;;;;;;14.93;11.10;;;;;;;;;;5175011;28;20052;-71
2022/07/21 03:46:54;;;;;;;14.57;11.47;;;;;;;;;;5190146;28;20056;-71
2022/07/21 03:49:27;;;;;;;18.77;11.20;;;;;;;;;;5181785;28;20178;-72
2022/07/21 03:52:00;;;;;;;17.47;11.57;;;;;;;;;;5171642;28;20076;-72
2022/07/21 03:54:32;;;;;;;15.43;11.00;;;;;;;;;;5174380;28;20352;-71
2022/07/21 03:57:05;;;;;;;14.73;11.10;;;;;;;;;;5172971;28;20046;-71
2022/07/21 03:59:38;;;;;;;13.67;11.57;;;21.80;99.90;;;;;;5172911;28;20697;-71
2022/07/21 04:02:10;;;;;;;14.27;11.95;;;21.90;99.90;;;;;;5174932;28;20045;-72
2022/07/21 04:04:42;;;;;;;16.15;12.07;;;21.80;99.90;;;;;;5173847;28;20617;-72
2022/07/21 04:07:15;;;;;;;18.45;11.98;;;21.80;99.90;;;;;;5177625;28;20425;-71
2022/07/21 04:09:47;;;;;;;20.02;12.40;;;21.80;99.90;;;;;;5173857;28;20045;-71
2022/07/21 04:12:24;;;;;;;16.60;13.60;;;21.80;99.90;;;;;;5174488;28;20052;-71
2022/07/21 04:14:56;;;;;;;14.60;12.35;;;21.70;99.90;;;;;;5177673;28;20045;-71
2022/07/21 04:17:29;;;;;;;16.85;13.68;;;21.80;99.90;;;;;;5169910;28;20548;-71
2022/07/21 04:20:02;;;;;;;20.13;12.93;;;21.80;99.90;;;;;;5172804;28;20049;-72
2022/07/21 04:22:36;;;;;;;18.30;13.88;;;21.80;99.90;;;;;;5167235;28;20065;-71
2022/07/21 04:25:09;;;;;;;19.77;13.90;;;21.70;99.90;;;;;;5165960;28;20058;-72
2022/07/21 04:27:42;;;;;;;;;;;21.70;99.90;;;;;;5168241;28;20053;-71
2022/07/21 04:30:17;;;;;;;16.70;14.23;;;21.60;99.90;;;;;;5166118;28;19929;-72
2022/07/21 04:32:50;;;;;;;17.42;14.25;;;21.70;99.90;;;;;;5172780;28;20046;-72
2022/07/21 04:35:23;;;;;;;20.87;14.83;;;21.70;99.90;;;;;;5169228;28;20057;-72
2022/07/21 04:37:55;;;;;;;19.50;14.52;;;21.70;99.90;;;;;;5168382;28;20297;-71
2022/07/21 04:40:28;;;;;;;16.95;14.02;;;21.70;99.90;;;;;;5165146;28;20070;-72
2022/07/21 04:43:01;;;;;;;16.65;14.63;;;21.70;99.90;;;;;;5171376;28;20536;-71
2022/07/21 04:45:33;;;;;;;19.20;14.35;;;21.60;99.90;;;;;;5177254;28;20265;-71
2022/07/21 04:48:06;;;;;;;19.13;16.23;;;21.60;99.90;;;;;;5175311;28;23048;-71
2022/07/21 04:50:38;;;;;;;35.17;16.08;;;21.40;99.90;;;;;;5170485;28;20050;-70
2022/07/21 04:53:11;;;;;;;18.65;15.75;;;21.50;99.90;;;;;;5163725;28;20061;-72
2022/07/21 04:55:43;;;;;;;18.70;14.93;;;21.50;99.90;;;;;;5175247;28;20046;-70
2022/07/21 04:58:16;;;;;;;22.27;16.10;;;21.60;99.90;;;;;;5176899;28;20064;-70
2022/07/21 05:00:48;;;;;;;20.38;16.42;;;21.60;99.90;;;;;;5179978;28;20041;-71
2022/07/21 05:03:21;;;;;;;20.42;15.93;;;21.60;99.90;;;;;;5179587;28;20050;-71
2022/07/21 05:05:53;;;;;;;23.38;15.10;;;21.60;99.90;;;;;;5185401;28;20061;-70
2022/07/21 05:08:27;;;;;;;22.48;16.35;;;21.70;99.90;;;;;;5183209;28;20041;-71
2022/07/21 05:10:59;;;;;;;;;;;21.80;99.90;;;;;;5179566;28;20041;-71
2022/07/21 05:13:32;;;;;;;20.88;15.93;;;21.60;99.90;;;;;;5186187;28;19929;-71
2022/07/21 05:16:04;;;;;;;22.17;16.70;;;21.70;99.90;;;;;;5184776;28;20496;-71
2022/07/21 05:18:37;;;;;;;22.92;16.17;;;21.80;99.90;;;;;;5168815;28;20053;-71
2022/07/21 05:21:09;;;;;;;19.80;15.82;;;21.80;99.90;;;;;;5181443;28;20072;-71
2022/07/21 05:23:42;;;;;;;18.48;15.70;;;21.90;99.90;;;;;;5181224;28;20580;-71
2022/07/21 05:26:15;;;;;;;21.75;15.25;;;21.90;99.90;;;;;;5179459;28;20056;-71
2022/07/21 05:28:47;;;;;;;21.33;16.90;;;22.00;99.90;;;;;;5184325;28;20046;-71
2022/07/21 05:31:20;;;;;;;23.90;16.55;;;21.90;99.90;;;;;;5183041;28;20500;-71
2022/07/21 05:33:53;;;;;;;20.15;16.33;;;21.90;99.90;;;;;;5187370;28;20046;-71
2022/07/21 05:36:25;;;;;;;23.92;16.33;;;22.00;99.90;;;;;;5183142;28;20045;-70
2022/07/21 05:38:57;;;;;;;20.67;15.77;;;22.00;99.90;;;;;;5183591;28;20038;-71
2022/07/21 05:41:30;;;;;;;17.85;14.82;;;22.00;99.90;;;;;;5180683;28;20429;-70
2022/07/21 05:44:03;;;;;;;20.95;15.82;;;22.20;99.90;;;;;;5177067;28;20049;-70
2022/07/21 05:46:35;;;;;;;23.50;16.70;;;22.30;99.90;;;;;;5160707;28;20053;-70
2022/07/21 05:49:08;;;;;;;20.73;15.75;;;22.30;99.90;;;;;;5182256;28;20060;-71
2022/07/21 05:51:40;;;;;;;22.77;16.50;;;22.40;99.90;;;;;;5171779;28;20049;-70
2022/07/21 05:54:12;;;;;;;19.98;15.73;;;22.40;99.90;;;;;;5176278;28;20052;-72
2022/07/21 05:56:45;;;;;;;22.35;17.48;;;22.50;99.90;;;;;;5180466;28;20681;-71
2022/07/21 05:59:17;;;;;;;21.95;16.05;;;22.40;99.90;;;;;;5177846;28;20038;-71
2022/07/21 06:01:50;;;;;;;25.42;15.13;;;22.40;99.90;;;;;;5174069;28;20055;-71
2022/07/21 06:04:23;;;;;;;26.80;16.80;;;22.60;99.90;;;;;;5179931;28;20055;-70
2022/07/21 06:06:55;;;;;;;17.88;15.38;;;22.60;99.90;;;;;;5193674;28;20042;-70
2022/07/21 06:09:28;;;;;;;21.17;16.25;;;22.60;99.90;;;;;;5173483;28;20056;-70
2022/07/21 06:12:01;;;;;;;22.42;17.95;;;22.60;99.90;;;;;;5191768;28;20046;-70
2022/07/21 06:14:33;;;;;;;22.02;15.85;;;22.70;99.90;;;;;;5179666;28;20086;-70
2022/07/21 06:17:06;;;;;;;21.33;16.60;;;22.80;99.90;;;;;;5173046;28;20148;-70
2022/07/21 06:19:39;;;;;;;23.15;17.92;;;22.80;99.90;;;;;;5193459;28;20053;-70
2022/07/21 06:22:11;;;;;;;20.63;16.05;;;22.70;99.90;;;;;;5175233;28;20057;-70
2022/07/21 06:24:44;;;;;;;23.85;17.70;;;22.80;99.90;;;;;;5181727;28;20060;-71
2022/07/21 06:27:16;;;;;;;21.47;17.27;;;22.80;99.90;;;;;;5171167;28;20410;-71
2022/07/21 06:29:49;;;;;;;20.27;16.77;;;22.60;99.90;;;;;;5179856;28;20045;-70
2022/07/21 06:32:21;;;;;;;23.07;16.70;;;22.70;99.90;;;;;;5172788;28;20061;-70
2022/07/21 06:34:54;;;;;;;22.30;16.75;;;22.60;99.90;;;;;;5175966;28;20046;-71
2022/07/21 06:37:27;;;;;;;22.45;17.02;;;22.60;99.90;;;;;;5175179;28;20049;-71
2022/07/21 06:40:00;;;;;;;22.38;16.85;;;22.60;99.90;;;;;;5170916;28;20068;-71
2022/07/21 06:42:32;;;;;;;21.58;16.88;;;22.60;99.90;;;;;;5180848;28;20587;-71
2022/07/21 06:45:06;;;;;;;21.70;17.75;;;22.70;99.90;;;;;;5172542;28;20501;-71
2022/07/21 06:47:38;;;;;;;24.33;16.08;;;22.80;99.90;;;;;;5179190;28;20045;-71
2022/07/21 06:50:11;;;;;;;23.13;17.85;;;22.90;99.90;;;;;;5177464;28;20054;-71
2022/07/21 06:52:44;;;;;;;26.98;16.65;;;22.90;99.90;;;;;;5174754;28;20539;-71
2022/07/21 06:55:18;;;;;;;23.30;17.25;;;22.90;99.90;;;;;;5194966;28;20058;-72
2022/07/21 06:57:51;;;;;;;22.45;18.10;;;23.00;99.90;;;;;;5180542;28;20052;-72
2022/07/21 07:00:23;;;;;;;22.08;17.08;;;23.10;99.90;;;;;;5181296;28;20421;-72
2022/07/21 07:02:56;;;;;;;24.33;17.88;;;23.00;99.90;;;;;;5174882;28;20061;-72
2022/07/21 07:05:30;;;;;;;24.15;17.90;;;22.90;99.90;;;;;;5174985;28;20069;-71
2022/07/21 07:08:04;;;;;;;23.48;17.40;;;22.90;99.90;;;;;;5187188;28;20037;-71
2022/07/21 07:10:43;;;;;;;22.02;17.58;;;22.90;99.90;;;;;;5171033;28;20041;-72
2022/07/21 07:13:17;;;;;;;24.42;19.08;;;22.90;99.90;;;;;;5181551;28;20496;-70
2022/07/21 07:16:10;;;;;;;;;;;23.00;99.90;;;;;;5167012;28;20042;-70
2022/07/21 07:18:42;;;;;;;29.50;19.40;;;22.90;99.90;;;;;;5168666;28;19932;-71
2022/07/21 07:21:15;;;;;;;25.00;19.95;;;23.10;99.90;;;;;;5169783;28;20535;-71
2022/07/21 07:23:47;;;;;;;23.02;17.73;;;23.20;99.90;;;;;;5171243;28;20056;-72
2022/07/21 07:26:20;;;;;;;23.08;18.45;;;23.50;99.90;;;;;;5168200;28;20060;-71
2022/07/21 07:28:52;;;;;;;26.47;18.33;;;23.60;99.90;;;;;;5176518;28;20046;-72
2022/07/21 07:31:25;;;;;;;24.67;19.70;;;23.60;99.90;;;;;;5173292;28;20064;-71
2022/07/21 07:33:58;;;;;;;23.13;19.20;;;23.60;99.90;;;;;;5185925;28;20073;-71
2022/07/21 07:36:31;;;;;;;26.52;18.75;;;23.60;99.90;;;;;;5169139;28;20269;-72
2022/07/21 07:39:04;;;;;;;25.75;18.65;;;23.70;99.90;;;;;;5172756;28;20849;-72
2022/07/21 07:41:37;;;;;;;24.80;18.15;;;23.80;99.90;;;;;;5167793;28;20064;-71
2022/07/21 07:44:10;;;;;;;21.63;16.60;;;23.90;99.90;;;;;;5164691;28;20056;-73
2022/07/21 07:46:43;;;;;;;18.92;15.40;;;23.90;98.60;;;;;;5171596;28;20556;-73
2022/07/21 07:49:15;;;;;;;21.98;15.38;;;23.90;96.30;;;;;;5171641;28;20041;-73
2022/07/21 07:51:50;;;;;;;17.10;13.32;;;23.90;96.60;;;;;;5171962;28;20057;-72
2022/07/21 07:54:23;;;;;;;17.58;13.43;;;23.90;95.60;;;;;;5169718;28;20045;-72
2022/07/21 07:56:56;;;;;;;21.50;13.95;;;23.80;94.80;;;;;;5171651;28;20513;-73
2022/07/21 07:59:28;;;;;;;22.50;14.55;;;23.70;95.10;;;;;;5168075;28;20062;-71
2022/07/21 08:02:01;;;;;;;18.10;15.13;;;23.80;95.30;;;;;;5174606;28;20053;-71
2022/07/21 08:04:35;;;;;;;17.80;14.23;;;23.80;95.70;;;;;;5170715;28;20045;-71
2022/07/21 08:07:08;;;;;;;19.73;15.13;;;23.80;94.50;;;;;;5172541;28;20116;-72
2022/07/21 08:09:40;;;;;;;24.23;14.80;;;23.70;94.10;;;;;;5178818;28;20485;-73
2022/07/21 08:12:13;;;;;;;18.75;14.65;;;23.70;94.10;;;;;;5170548;28;20164;-72
2022/07/21 08:14:45;;;;;;;18.03;14.20;;;23.80;93.60;;;;;;5173749;28;20050;-72
2022/07/21 08:17:19;;;;;;;21.55;14.32;;;23.90;92.80;;;;;;5172484;28;20057;-71
2022/07/21 08:19:51;;;;;;;21.90;14.63;;;23.90;92.80;;;;;;5175750;28;20049;-71
2022/07/21 08:22:24;;;;;;;17.70;15.57;;;24.00;92.80;;;;;;5169046;28;20041;-72
2022/07/21 08:24:56;;;;;;;19.23;14.80;;;24.10;92.70;;;;;;5168722;28;20300;-71
2022/07/21 08:27:29;;;;;;;20.63;15.27;;;24.10;92.10;;;;;;5174729;28;20674;-71
2022/07/21 08:30:02;;;;;;;20.92;16.55;;;24.10;92.50;;;;;;5172184;28;20042;-71
2022/07/21 08:32:34;;;;;;;20.58;16.75;;;24.00;92.40;;;;;;5188622;28;20038;-71
2022/07/21 08:35:08;;;;;;;22.25;16.52;;;23.80;93.10;;;;;;5179029;28;20046;-72
2022/07/21 08:37:41;;;;;;;26.20;15.88;;;23.70;94.00;;;;;;5180258;28;20045;-71
2022/07/21 08:40:14;;;;;;;20.52;15.82;;;23.70;94.70;;;;;;5179713;28;20601;-72
2022/07/21 08:42:47;;;;;;;22.50;15.98;;;23.70;94.70;;;;;;5179664;28;20041;-72
2022/07/21 08:45:21;;;;;;;21.27;16.52;;;23.60;95.00;;;;;;5189613;28;20080;-71
2022/07/21 08:47:56;;;;;;;20.75;16.45;;;23.60;95.30;;;;;;5179630;28;20042;-69
2022/07/21 08:50:32;;;;;;;21.58;15.85;;;23.50;95.60;;;;;;5177004;28;20406;-71
2022/07/21 08:53:05;;;;;;;22.65;16.42;;;23.50;95.90;;;;;;5181817;28;20442;-70
2022/07/21 08:55:39;;;;;;;18.95;15.98;;;23.40;96.00;;;;;;5180047;28;20049;-72
2022/07/21 08:58:13;;;;;;;22.88;16.63;;;23.40;96.40;;;;;;5180818;28;20046;-72
2022/07/21 09:00:46;;;;;;;;;;;23.50;96.40;;;;;;5177199;28;20500;-71
2022/07/21 09:03:22;;;;;;;23.27;16.57;;;23.30;96.60;;;;;;5182551;28;19925;-74
2022/07/21 09:06:15;;;;;;;27.80;17.73;;;23.50;96.70;;;;;;5175457;28;20304;-72
2022/07/21 09:08:49;;;;;;;23.15;16.45;;;23.50;96.70;;;;;;5181436;28;20050;-72
2022/07/21 09:11:30;;;;;;;24.85;16.67;;;23.50;96.70;;;;;;5177459;28;20050;-72
2022/07/21 09:14:11;;;;;;;26.48;15.95;;;23.40;96.90;;;;;;5188039;28;20405;-72
2022/07/21 09:16:47;;;;;;;21.30;16.67;;;23.40;97.00;;;;;;5191947;28;20481;-71
2022/07/21 09:19:24;;;;;;;24.42;16.85;;;23.40;96.80;;;;;;5176640;28;20054;-72
2022/07/21 09:21:58;;;;;;;20.80;16.55;;;23.30;96.90;;;;;;5189325;28;20099;-70
2022/07/21 09:24:39;;;;;;;21.67;17.45;;;23.30;97.60;;;;;;5176392;28;20049;-71
2022/07/21 09:27:23;;;;;;;21.38;16.85;;;23.40;97.50;;;;;;5165577;28;20485;-71
2022/07/21 09:30:00;;;;;;;25.35;17.00;;;23.40;97.90;;;;;;5182151;28;20404;-71
2022/07/21 09:32:37;;;;;;;22.77;17.20;;;23.30;98.00;;;;;;5180420;28;20076;-72
2022/07/21 09:35:13;;;;;;;21.10;17.30;;;23.30;98.00;;;;;;5176085;28;20150;-71
2022/07/21 09:37:46;;;;;;;22.38;17.63;;;23.30;98.70;;;;;;5176313;28;20057;-72
2022/07/21 09:40:18;;;;;;;22.67;17.40;;;23.30;98.50;;;;;;5177488;28;20069;-71
2022/07/21 09:42:51;;;;;;;25.90;18.93;;;23.30;98.50;;;;;;5177467;28;20065;-72
2022/07/21 09:45:25;;;;;;;24.63;17.92;;;23.20;99.20;;;;;;5173905;28;20301;-72
2022/07/21 09:47:58;;;;;;;22.58;17.35;;;23.20;99.50;;;;;;5174508;28;20142;-72
2022/07/21 09:50:50;;;;;;;26.73;18.17;;;23.20;99.80;;;;;;5177523;28;20081;-71
2022/07/21 09:53:22;;;;;;;23.48;18.67;;;23.10;99.90;;;;;;5177676;28;20495;-71
2022/07/21 09:55:56;;;;;;;29.25;17.85;;;23.00;99.90;;;;;;5177042;28;20501;-71
2022/07/21 09:58:28;;;;;;;21.65;17.67;;;23.00;99.90;;;;;;5176438;28;20045;-71
2022/07/21 10:01:01;;;;;;;25.85;18.40;;;23.00;99.90;;;;;;5176071;28;20052;-71
2022/07/21 10:03:36;;;;;;;25.00;18.90;;;23.00;99.90;;;;;;5184173;28;20045;-71
2022/07/21 10:06:09;;;;;;;28.38;19.98;;;22.90;99.90;;;;;;5170560;28;20049;-72
2022/07/21 10:08:43;;;;;;;25.85;20.23;;;22.80;99.90;;;;;;5175183;28;20549;-72
2022/07/21 10:11:16;;;;;;;26.70;20.90;;;22.80;99.90;;;;;;5176903;28;20465;-70
2022/07/21 10:13:51;;;;;;;30.55;20.15;;;22.80;99.90;;;;;;5179668;28;20045;-70
2022/07/21 10:16:24;;;;;;;26.27;18.57;;;22.70;99.90;;;;;;5174356;28;20376;-70
2022/07/21 10:19:15;;;;;;;;;;;22.70;99.90;;;;;;5180128;28;20445;-70
2022/07/21 10:22:15;;;;;;;22.95;16.80;;;22.40;99.90;;;;;;5173890;28;19932;-70
2022/07/21 10:24:49;;;;;;;26.17;18.33;;;22.40;99.90;;;;;;5166907;28;20041;-70
2022/07/21 10:27:22;;;;;;;24.85;20.13;;;22.20;99.90;;;;;;5185671;28;20061;-70
2022/07/21 10:30:15;;;;;;;25.05;19.75;;;22.10;99.90;;;;;;5178636;28;20125;-70
2022/07/21 10:32:49;;;;;;;;;;;22.00;99.90;;;;;;5161461;28;20061;-70
2022/07/21 10:35:30;;;;;;;30.20;22.58;;;21.80;99.90;;;;;;5163572;28;19952;-70
2022/07/21 10:38:03;;;;;;;30.00;21.42;;;21.70;99.90;;;;;;5156115;28;20056;-71
2022/07/21 10:40:36;;;;;;;29.65;23.02;;;21.70;99.90;;;;;;5159419;28;20049;-71
2022/07/21 10:43:09;;;;;;;;;;;21.60;99.90;;;;;;5173174;28;20046;-71
2022/07/21 10:45:43;;;;;;;28.02;21.52;;;21.50;99.90;;;;;;5166894;28;19959;-71
2022/07/21 10:48:37;;;;;;;25.88;20.70;;;21.50;99.90;;;;;;5164592;28;20473;-70
2022/07/21 10:51:13;;;;;;;25.77;21.42;;;21.50;99.90;;;;;;5168694;28;20068;-70
2022/07/21 10:53:46;;;;;;;25.23;20.33;;;21.50;99.90;;;;;;5162065;28;20053;-71
2022/07/21 10:56:31;;;;;;;25.17;19.77;;;21.60;99.90;;;;;;5180247;28;20045;-71
2022/07/21 10:59:03;;;;;;;30.67;22.40;;;21.60;99.90;;;;;;5168708;28;20052;-71
2022/07/21 11:01:37;;;;;;;26.13;21.15;;;21.60;99.90;;;;;;5161092;28;20038;-72
2022/07/21 11:04:11;;;;;;;25.33;20.20;;;21.50;99.90;;;;;;5163612;28;20044;-73
2022/07/21 11:06:44;;;;;;;29.15;24.27;;;21.50;99.90;;;;;;5164450;28;20519;-73
2022/07/21 11:09:21;;;;;;;29.95;20.48;;;21.60;99.90;;;;;;5170167;28;20049;-72
2022/07/21 11:12:03;;;;;;;25.23;19.95;;;21.60;99.90;;;;;;5180851;28;20070;-73
2022/07/21 11:14:41;;;;;;;29.67;23.58;;;21.70;99.90;;;;;;5163063;28;20042;-73
2022/07/21 11:17:31;;;;;;;28.67;23.60;;;21.60;99.90;;;;;;5173210;28;20045;-73
2022/07/21 11:20:13;;;;;;;27.85;21.77;;;21.60;99.90;;;;;;5181302;28;20141;-72
2022/07/21 11:22:52;;;;;;;28.05;22.75;;;21.70;99.90;;;;;;5162539;28;20162;-72
2022/07/21 11:25:25;;;;;;;28.42;22.20;;;21.80;99.90;;;;;;5160015;28;20041;-72
2022/07/21 11:27:58;;;;;;;31.80;23.73;;;21.90;99.90;;;;;;5168062;28;20046;-73
2022/07/21 11:30:30;;;;;;;28.02;20.75;;;21.90;99.90;;;;;;5162655;28;20057;-72
2022/07/21 11:33:03;;;;;;;28.65;22.13;;;21.90;99.90;;;;;;5163562;28;20041;-72
2022/07/21 11:35:37;;;;;;;25.42;21.10;;;22.00;99.90;;;;;;5162352;28;20054;-72
2022/07/21 11:38:10;;;;;;;27.85;21.45;;;22.10;99.90;;;;;;5164564;28;20076;-71
2022/07/21 11:40:42;;;;;;;25.92;21.27;;;22.10;99.90;;;;;;5162254;28;20061;-73
2022/07/21 11:43:15;;;;;;;25.98;21.40;;;22.20;99.90;;;;;;5153974;28;20061;-73
2022/07/21 11:45:52;;;;;;;26.55;22.33;;;22.40;99.90;;;;;;5173692;28;20043;-73
2022/07/21 11:48:34;;;;;;;27.40;22.05;;;22.40;99.90;;;;;;5158633;28;20064;-72
2022/07/21 11:51:07;;;;;;;27.05;21.45;;;22.50;99.90;;;;;;5162061;28;20481;-72
2022/07/21 11:53:45;;;;;;;25.77;20.35;;;22.70;99.90;;;;;;5140917;28;20494;-72
2022/07/21 11:56:17;;;;;;;28.45;22.50;;;22.60;99.90;;;;;;5156949;28;20075;-72
2022/07/21 11:58:50;;;;;;;28.05;22.08;;;22.70;99.90;;;;;;5168446;28;20064;-72
2022/07/21 12:01:22;;;;;;;25.43;20.90;;;22.80;99.90;;;;;;5152294;28;20406;-72
2022/07/21 12:03:55;;;;;;;24.92;20.17;;;22.80;99.90;;;;;;5171911;28;20045;-72
2022/07/21 12:06:29;;;;;;;22.50;19.92;;;22.80;99.90;;;;;;5187608;28;20449;-72
2022/07/21 12:09:02;;;;;;;24.30;20.30;;;22.90;99.90;;;;;;5162921;28;20124;-73
2022/07/21 12:11:36;;;;;;;21.65;19.35;;;23.00;99.90;;;;;;5159207;28;20061;-72
2022/07/21 12:14:08;;;;;;;;;;;23.00;99.90;;;;;;5149917;28;20037;-72
2022/07/21 12:16:51;;;;;;;25.55;19.13;;;22.90;99.90;;;;;;5162119;28;19929;-71
2022/07/21 12:19:25;;;;;;;25.47;19.33;;;23.10;99.90;;;;;;5170342;28;20054;-71
2022/07/21 12:21:59;;;;;;;26.17;20.60;;;23.20;99.90;;;;;;5164384;28;20338;-71
2022/07/21 12:24:53;;;;;;;27.65;19.85;;;23.30;99.90;;;;;;5159796;28;20050;-71
2022/07/21 12:27:27;;;;;;;27.42;18.80;;;23.30;99.90;;;;;;5174782;28;20041;-71
2022/07/21 12:29:59;;;;;;;27.92;19.92;;;23.30;99.90;;;;;;5164919;28;20056;-71
2022/07/21 12:32:48;;;;;;;23.77;18.77;;;23.20;99.90;;;;;;5169009;28;20041;-71
2022/07/21 12:35:27;;;;;;;25.45;19.75;;;23.30;99.90;;;;;;5173364;28;20041;-71
2022/07/21 12:38:07;;;;;;;24.48;20.08;;;23.30;99.90;;;;;;5157600;28;20058;-72
2022/07/21 12:40:56;;;;;;;23.48;19.88;;;23.40;99.90;;;;;;5140317;28;20644;-71
2022/07/21 12:43:59;;;;;;;26.58;20.85;;;23.40;99.90;;;;;;5156248;28;20041;-71
2022/07/21 12:46:34;;;;;;;26.73;20.35;;;23.20;99.90;;;;;;5139029;28;20053;-72
2022/07/21 12:49:10;;;;;;;28.08;20.67;;;23.40;99.90;;;;;;5161653;28;20038;-71
2022/07/21 12:51:56;;;;;;;23.73;19.55;;;23.40;99.90;;;;;;5140042;28;20509;-70
2022/07/21 12:54:28;;;;;;;29.52;21.48;;;23.40;99.90;;;;;;5155603;28;20066;-70
2022/07/21 12:57:01;;;;;;;26.25;21.67;;;23.40;99.90;;;;;;5144165;28;20137;-69
2022/07/21 12:59:40;;;;;;;27.45;22.02;;;23.50;99.90;;;;;;5146518;28;20045;-70
2022/07/21 13:02:12;;;;;;;28.65;20.92;;;23.50;99.90;;;;;;5154516;28;20053;-70
2022/07/21 13:04:45;;;;;;;28.45;22.20;;;23.60;99.90;;;;;;5148996;28;20056;-70
2022/07/21 13:07:18;;;;;;;25.85;21.05;;;23.50;99.90;;;;;;5153985;28;20861;-71
2022/07/21 13:09:51;;;;;;;28.20;20.95;;;23.50;99.90;;;;;;5134974;28;20493;-70
2022/07/21 13:12:26;;;;;;;27.23;22.85;;;23.60;99.90;;;;;;5145203;28;20056;-70
2022/07/21 13:15:00;;;;;;;27.52;22.83;;;23.60;99.90;;;;;;5136740;28;20054;-70
2022/07/21 13:17:33;;;;;;;27.03;22.77;;;23.70;99.90;;;;;;5148787;28;20516;-71
2022/07/21 13:20:06;;;;;;;30.73;23.02;;;23.70;99.90;;;;;;5157310;28;20620;-70
2022/07/21 13:22:39;;;;;;;30.05;23.42;;;23.70;99.90;;;;;;5159343;28;20046;-69
2022/07/21 13:25:12;;;;;;;30.00;22.90;;;23.70;99.90;;;;;;5159183;28;20073;-70
2022/07/21 13:27:45;;;;;;;35.10;23.90;;;23.70;99.90;;;;;;5157236;28;20054;-70
2022/07/21 13:30:20;;;;;;;30.85;24.15;;;23.70;99.90;;;;;;5151063;28;20061;-70
2022/07/21 13:32:52;;;;;;;31.95;23.65;;;23.70;99.90;;;;;;5149470;28;20057;-71